createdAt,value
2022-08-02T00:00:25.337Z,26.38
2022-08-02T00:00:56.777Z,26.37
2022-08-02T00:01:28.276Z,26.37
2022-08-02T00:01:59.958Z,26.37
2022-08-02T00:02:31.420Z,26.38
2022-08-02T00:03:02.855Z,26.38
2022-08-02T00:03:34.300Z,26.37
2022-08-02T00:04:05.728Z,26.36
2022-08-02T00:04:37.160Z,26.34
2022-08-02T00:05:08.597Z,26.36
2022-08-02T00:05:40.190Z,26.35
2022-08-02T00:06:11.797Z,26.36
2022-08-02T00:06:43.232Z,26.35
2022-08-02T00:07:14.731Z,26.35
2022-08-02T00:07:46.158Z,26.34
2022-08-02T00:08:17.591Z,26.36
2022-08-02T00:08:49.017Z,26.35
2022-08-02T00:09:20.447Z,26.34
2022-08-02T00:09:52.797Z,26.35
2022-08-02T00:10:24.225Z,26.35
2022-08-02T00:10:55.648Z,26.34
2022-08-02T00:11:27.071Z,26.34
2022-08-02T00:11:58.492Z,26.33
2022-08-02T00:12:30.014Z,26.34
2022-08-02T00:13:01.447Z,26.34
2022-08-02T00:13:32.886Z,26.33
2022-08-02T00:14:04.320Z,26.33
2022-08-02T00:14:35.749Z,26.32
2022-08-02T00:15:07.170Z,26.34
2022-08-02T00:15:38.601Z,26.34
2022-08-02T00:16:10.019Z,26.32
2022-08-02T00:16:48.192Z,26.31
2022-08-02T00:17:19.621Z,26.31
2022-08-02T00:17:51.140Z,26.32
2022-08-02T00:18:22.582Z,26.32
2022-08-02T00:18:54.007Z,26.31
2022-08-02T00:19:25.437Z,26.30
2022-08-02T00:19:56.871Z,26.31
2022-08-02T00:20:28.304Z,26.30
2022-08-02T00:20:59.739Z,26.31
2022-08-02T00:21:31.169Z,26.31
2022-08-02T00:22:02.599Z,26.31
2022-08-02T00:22:34.024Z,26.31
2022-08-02T00:23:05.508Z,26.29
2022-08-02T00:24:03.352Z,26.29
2022-08-02T00:24:30.618Z,26.28
2022-08-02T00:25:02.516Z,26.27
2022-08-02T00:25:33.950Z,26.26
2022-08-02T00:26:05.377Z,26.27
2022-08-02T00:26:36.813Z,26.27
2022-08-02T00:27:09.251Z,26.26
2022-08-02T00:27:41.195Z,26.26
2022-08-02T00:28:12.709Z,26.25
2022-08-02T00:28:44.137Z,26.26
2022-08-02T00:29:15.621Z,26.24
2022-08-02T00:29:52.743Z,26.25
2022-08-02T00:30:24.892Z,26.24
2022-08-02T00:30:56.340Z,26.24
2022-08-02T00:31:27.779Z,26.23
2022-08-02T00:31:59.211Z,26.22
2022-08-02T00:32:30.632Z,26.23
2022-08-02T00:33:02.061Z,26.23
2022-08-02T00:34:05.257Z,26.25
2022-08-02T00:34:30.266Z,26.22
2022-08-02T00:35:04.369Z,26.22
2022-08-02T00:35:35.794Z,26.23
2022-08-02T00:36:12.332Z,26.22
2022-08-02T00:36:43.767Z,26.23
2022-08-02T00:37:15.192Z,26.22
2022-08-02T00:37:46.611Z,26.22
2022-08-02T00:38:18.046Z,26.23
2022-08-02T00:38:49.564Z,26.21
2022-08-02T00:39:34.999Z,26.22
2022-08-02T00:40:07.148Z,26.20
2022-08-02T00:40:38.573Z,26.20
2022-08-02T00:41:09.997Z,26.20
2022-08-02T00:41:41.423Z,26.19
2022-08-02T00:42:13.060Z,26.19
2022-08-02T00:42:44.727Z,26.19
2022-08-02T00:43:16.148Z,26.16
2022-08-02T00:43:47.579Z,26.17
2022-08-02T00:44:19.057Z,26.17
2022-08-02T00:44:50.489Z,26.17
2022-08-02T00:45:21.931Z,26.16
2022-08-02T00:46:13.340Z,26.17
2022-08-02T00:46:44.764Z,26.17
2022-08-02T00:47:19.559Z,26.19
2022-08-02T00:47:51.341Z,26.18
2022-08-02T00:48:22.772Z,26.17
2022-08-02T00:48:54.258Z,26.16
2022-08-02T00:49:25.851Z,26.15
2022-08-02T00:49:57.335Z,26.14
2022-08-02T00:50:28.760Z,26.13
2022-08-02T00:51:00.221Z,26.14
2022-08-02T00:51:31.639Z,26.13
2022-08-02T00:52:03.066Z,26.14
2022-08-02T00:52:34.494Z,26.13
2022-08-02T00:53:05.915Z,26.14
2022-08-02T00:53:37.344Z,26.15
2022-08-02T00:54:08.776Z,26.14
2022-08-02T00:54:40.305Z,26.14
2022-08-02T00:55:11.799Z,26.13
2022-08-02T00:55:43.232Z,26.13
2022-08-02T00:56:14.651Z,26.13
2022-08-02T00:56:50.855Z,26.13
2022-08-02T00:57:22.691Z,26.13
2022-08-02T00:57:54.107Z,26.12
2022-08-02T00:58:25.527Z,26.12
2022-08-02T00:58:56.956Z,26.13
2022-08-02T00:59:28.376Z,26.12
2022-08-02T00:59:59.906Z,26.12
2022-08-02T01:00:31.340Z,26.11
2022-08-02T01:01:02.843Z,26.11
2022-08-02T01:01:34.373Z,26.11
2022-08-02T01:02:05.915Z,26.10
2022-08-02T01:02:37.395Z,26.11
2022-08-02T01:03:08.837Z,26.09
2022-08-02T01:03:40.273Z,26.09
2022-08-02T01:04:11.707Z,26.08
2022-08-02T01:04:43.137Z,26.09
2022-08-02T01:05:14.675Z,26.08
2022-08-02T01:06:10.150Z,26.08
2022-08-02T01:06:37.512Z,26.08
2022-08-02T01:07:12.802Z,26.07
2022-08-02T01:07:45.108Z,26.06
2022-08-02T01:08:16.541Z,26.07
2022-08-02T01:08:48.224Z,26.05
2022-08-02T01:09:19.789Z,26.06
2022-08-02T01:09:51.361Z,26.05
2022-08-02T01:10:22.788Z,26.04
2022-08-02T01:10:54.225Z,26.05
2022-08-02T01:11:25.654Z,26.05
2022-08-02T01:11:57.087Z,26.05
2022-08-02T01:12:33.940Z,26.05
2022-08-02T01:13:05.368Z,26.03
2022-08-02T01:13:36.809Z,26.04
2022-08-02T01:14:08.240Z,26.04
2022-08-02T01:14:39.681Z,26.04
2022-08-02T01:15:11.160Z,26.03
2022-08-02T01:15:42.599Z,26.03
2022-08-02T01:16:14.052Z,26.02
2022-08-02T01:16:45.487Z,26.03
2022-08-02T01:17:18.252Z,26.02
2022-08-02T01:17:49.815Z,26.02
2022-08-02T01:18:21.245Z,26.01
2022-08-02T01:18:52.677Z,26.01
2022-08-02T01:19:24.108Z,26.00
2022-08-02T01:19:55.577Z,25.98
2022-08-02T01:20:27.018Z,25.98
2022-08-02T01:20:58.454Z,25.98
2022-08-02T01:21:29.884Z,25.99
2022-08-02T01:22:01.308Z,26.00
2022-08-02T01:22:59.566Z,26.00
2022-08-02T01:23:24.146Z,25.98
2022-08-02T01:23:55.576Z,25.99
2022-08-02T01:24:27.009Z,25.98
2022-08-02T01:24:58.521Z,26.00
2022-08-02T01:25:30.022Z,25.99
2022-08-02T01:26:01.446Z,25.99
2022-08-02T01:26:32.888Z,25.98
2022-08-02T01:27:04.307Z,25.96
2022-08-02T01:27:35.742Z,25.96
2022-08-02T01:28:07.173Z,25.97
2022-08-02T01:28:38.613Z,25.97
2022-08-02T01:29:10.036Z,25.95
2022-08-02T01:29:41.468Z,25.95
2022-08-02T01:30:12.969Z,25.95
2022-08-02T01:30:44.413Z,25.95
2022-08-02T01:31:15.868Z,25.95
2022-08-02T01:31:47.296Z,25.94
2022-08-02T01:32:18.725Z,25.94
2022-08-02T01:32:50.156Z,25.93
2022-08-02T01:33:21.581Z,25.93
2022-08-02T01:33:53.026Z,25.94
2022-08-02T01:34:24.460Z,25.93
2022-08-02T01:34:55.883Z,25.93
2022-08-02T01:35:27.366Z,25.92
2022-08-02T01:35:58.802Z,25.93
2022-08-02T01:36:30.227Z,25.92
2022-08-02T01:37:01.652Z,25.93
2022-08-02T01:37:33.082Z,25.93
2022-08-02T01:38:04.509Z,25.93
2022-08-02T01:38:35.950Z,25.92
2022-08-02T01:39:07.380Z,25.91
2022-08-02T01:39:38.816Z,25.92
2022-08-02T01:40:10.393Z,25.92
2022-08-02T01:40:41.835Z,25.93
2022-08-02T01:41:13.264Z,25.93
2022-08-02T01:41:44.693Z,25.93
2022-08-02T01:42:16.125Z,25.93
2022-08-02T01:42:47.550Z,25.91
2022-08-02T01:43:18.977Z,25.90
2022-08-02T01:43:50.416Z,25.90
2022-08-02T01:44:25.798Z,25.90
2022-08-02T01:44:59.217Z,25.90
2022-08-02T01:45:30.698Z,25.89
2022-08-02T01:46:02.125Z,25.88
2022-08-02T01:46:33.554Z,25.90
2022-08-02T01:47:04.985Z,25.89
2022-08-02T01:47:36.411Z,25.89
2022-08-02T01:48:07.843Z,25.89
2022-08-02T01:48:39.268Z,25.87
2022-08-02T01:49:10.755Z,25.88
2022-08-02T01:49:42.274Z,25.89
2022-08-02T01:50:13.764Z,25.88
2022-08-02T01:50:45.230Z,25.87
2022-08-02T01:51:16.656Z,25.87
2022-08-02T01:51:48.084Z,25.88
2022-08-02T01:52:19.509Z,25.87
2022-08-02T01:52:53.475Z,25.86
2022-08-02T01:53:25.344Z,25.86
2022-08-02T01:53:56.765Z,25.86
2022-08-02T01:54:28.204Z,25.85
2022-08-02T01:54:59.631Z,25.86
2022-08-02T01:55:34.932Z,25.86
2022-08-02T01:56:22.565Z,25.83
2022-08-02T01:56:53.987Z,25.83
2022-08-02T01:57:25.440Z,25.84
2022-08-02T01:57:56.883Z,25.84
2022-08-02T01:58:28.310Z,25.83
2022-08-02T01:58:59.745Z,25.82
2022-08-02T01:59:31.169Z,25.83
2022-08-02T02:00:02.596Z,25.83
2022-08-02T02:00:34.028Z,25.82
2022-08-02T02:01:05.524Z,25.82
2022-08-02T02:01:37.122Z,25.82
2022-08-02T02:02:09.044Z,25.81
2022-08-02T02:02:40.774Z,25.81
2022-08-02T02:03:12.210Z,25.82
2022-08-02T02:03:44.282Z,25.81
2022-08-02T02:04:15.704Z,25.81
2022-08-02T02:04:47.196Z,25.80
2022-08-02T02:05:18.632Z,25.80
2022-08-02T02:05:50.069Z,25.80
2022-08-02T02:06:21.611Z,25.79
2022-08-02T02:06:53.035Z,25.80
2022-08-02T02:07:24.456Z,25.79
2022-08-02T02:07:55.876Z,25.79
2022-08-02T02:08:27.834Z,25.80
2022-08-02T02:08:59.359Z,25.79
2022-08-02T02:09:30.785Z,25.78
2022-08-02T02:10:02.213Z,25.78
2022-08-02T02:10:33.662Z,25.77
2022-08-02T02:12:06.315Z,25.78
2022-08-02T02:12:06.569Z,25.79
2022-08-02T02:12:45.395Z,25.77
2022-08-02T02:13:16.826Z,25.77
2022-08-02T02:13:48.259Z,25.77
2022-08-02T02:14:19.770Z,25.76
2022-08-02T02:14:51.702Z,25.76
2022-08-02T02:15:23.689Z,25.77
2022-08-02T02:15:55.122Z,25.76
2022-08-02T02:16:26.787Z,25.74
2022-08-02T02:16:58.216Z,25.75
2022-08-02T02:18:10.415Z,25.76
2022-08-02T02:18:21.042Z,25.74
2022-08-02T02:18:52.477Z,25.75
2022-08-02T02:19:23.908Z,25.75
2022-08-02T02:19:55.345Z,25.73
2022-08-02T02:20:26.775Z,25.74
2022-08-02T02:20:58.234Z,25.71
2022-08-02T02:21:29.705Z,25.72
2022-08-02T02:22:02.857Z,25.73
2022-08-02T02:22:34.284Z,25.73
2022-08-02T02:23:06.416Z,25.72
2022-08-02T02:23:39.538Z,25.72
2022-08-02T02:24:12.163Z,25.72
2022-08-02T02:24:43.600Z,25.71
2022-08-02T02:25:16.986Z,25.73
2022-08-02T02:25:48.415Z,25.74
2022-08-02T02:26:29.471Z,25.72
2022-08-02T02:27:03.107Z,25.71
2022-08-02T02:27:34.540Z,25.71
2022-08-02T02:28:08.578Z,25.71
2022-08-02T02:28:40.013Z,25.71
2022-08-02T02:29:11.445Z,25.70
2022-08-02T02:29:42.863Z,25.71
2022-08-02T02:30:14.297Z,25.69
2022-08-02T02:30:45.795Z,25.71
2022-08-02T02:31:17.215Z,25.69
2022-08-02T02:31:48.717Z,25.69
2022-08-02T02:32:20.151Z,25.68
2022-08-02T02:32:51.576Z,25.69
2022-08-02T02:33:26.401Z,25.69
2022-08-02T02:34:00.705Z,25.68
2022-08-02T02:34:32.369Z,25.69
2022-08-02T02:35:03.857Z,25.67
2022-08-02T02:35:35.279Z,25.67
2022-08-02T02:36:06.706Z,25.68
2022-08-02T02:36:38.483Z,25.67
2022-08-02T02:37:09.912Z,25.67
2022-08-02T02:37:41.345Z,25.67
2022-08-02T02:38:12.776Z,25.66
2022-08-02T02:38:44.205Z,25.67
2022-08-02T02:39:15.633Z,25.67
2022-08-02T02:39:47.057Z,25.68
2022-08-02T02:40:18.548Z,25.68
2022-08-02T02:40:50.061Z,25.66
2022-08-02T02:41:21.492Z,25.66
2022-08-02T02:41:52.952Z,25.66
2022-08-02T02:42:24.390Z,25.66
2022-08-02T02:42:55.820Z,25.67
2022-08-02T02:43:27.248Z,25.67
2022-08-02T02:43:58.676Z,25.66
2022-08-02T02:44:30.110Z,25.67
2022-08-02T02:45:01.542Z,25.66
2022-08-02T02:45:32.969Z,25.65
2022-08-02T02:46:04.393Z,25.66
2022-08-02T02:46:35.825Z,25.65
2022-08-02T02:47:07.255Z,25.64
2022-08-02T02:47:40.589Z,25.65
2022-08-02T02:48:13.076Z,25.64
2022-08-02T02:48:44.499Z,25.64
2022-08-02T02:49:15.967Z,25.63
2022-08-02T02:49:47.460Z,25.65
2022-08-02T02:50:18.889Z,25.64
2022-08-02T02:50:50.321Z,25.63
2022-08-02T02:51:21.761Z,25.64
2022-08-02T02:51:53.327Z,25.64
2022-08-02T02:52:24.747Z,25.63
2022-08-02T02:52:56.180Z,25.63
2022-08-02T02:53:27.609Z,25.63
2022-08-02T02:54:30.113Z,25.64
2022-08-02T02:54:50.441Z,25.64
2022-08-02T02:55:21.868Z,25.63
2022-08-02T02:56:01.749Z,25.63
2022-08-02T02:56:34.145Z,25.62
2022-08-02T02:57:05.644Z,25.62
2022-08-02T02:57:37.082Z,25.62
2022-08-02T02:58:08.518Z,25.61
2022-08-02T02:58:39.953Z,25.61
2022-08-02T02:59:11.375Z,25.62
2022-08-02T02:59:49.105Z,25.61
2022-08-02T03:00:21.288Z,25.60
2022-08-02T03:00:52.748Z,25.60
2022-08-02T03:01:55.381Z,25.61
2022-08-02T03:02:15.719Z,25.60
2022-08-02T03:02:47.147Z,25.58
2022-08-02T03:03:19.743Z,25.59
2022-08-02T03:03:52.915Z,25.59
2022-08-02T03:04:24.347Z,25.59
2022-08-02T03:04:58.119Z,25.58
2022-08-02T03:05:29.760Z,25.59
2022-08-02T03:06:01.186Z,25.58
2022-08-02T03:06:32.611Z,25.58
2022-08-02T03:07:04.035Z,25.58
2022-08-02T03:07:35.504Z,25.57
2022-08-02T03:08:06.934Z,25.58
2022-08-02T03:08:38.414Z,25.58
2022-08-02T03:09:09.840Z,25.57
2022-08-02T03:09:42.916Z,25.57
2022-08-02T03:10:14.340Z,25.57
2022-08-02T03:10:45.776Z,25.56
2022-08-02T03:11:17.204Z,25.58
2022-08-02T03:11:48.636Z,25.57
2022-08-02T03:12:20.304Z,25.57
2022-08-02T03:12:51.753Z,25.57
2022-08-02T03:13:23.189Z,25.55
2022-08-02T03:14:04.609Z,25.56
2022-08-02T03:14:36.041Z,25.55
2022-08-02T03:15:07.466Z,25.55
2022-08-02T03:15:38.897Z,25.54
2022-08-02T03:16:10.329Z,25.53
2022-08-02T03:16:41.904Z,25.54
2022-08-02T03:17:13.332Z,25.54
2022-08-02T03:17:44.789Z,25.54
2022-08-02T03:18:16.218Z,25.54
2022-08-02T03:18:47.844Z,25.53
2022-08-02T03:19:19.338Z,25.53
2022-08-02T03:19:50.759Z,25.54
2022-08-02T03:20:22.189Z,25.53
2022-08-02T03:20:53.620Z,25.53
2022-08-02T03:21:25.049Z,25.52
2022-08-02T03:21:57.480Z,25.51
2022-08-02T03:22:29.351Z,25.52
2022-08-02T03:23:00.790Z,25.52
2022-08-02T03:23:32.216Z,25.52
2022-08-02T03:24:03.639Z,25.52
2022-08-02T03:24:35.059Z,25.53
2022-08-02T03:25:06.486Z,25.53
2022-08-02T03:25:37.908Z,25.53
2022-08-02T03:26:09.337Z,25.53
2022-08-02T03:26:40.772Z,25.52
2022-08-02T03:27:12.207Z,25.52
2022-08-02T03:27:43.721Z,25.51
2022-08-02T03:28:15.156Z,25.50
2022-08-02T03:28:46.593Z,25.51
2022-08-02T03:29:18.023Z,25.52
2022-08-02T03:29:49.453Z,25.51
2022-08-02T03:30:20.883Z,25.51
2022-08-02T03:30:52.360Z,25.49
2022-08-02T03:31:23.801Z,25.50
2022-08-02T03:31:55.244Z,25.48
2022-08-02T03:32:26.723Z,25.49
2022-08-02T03:32:58.157Z,25.49
2022-08-02T03:33:29.580Z,25.49
2022-08-02T03:34:01.009Z,25.49
2022-08-02T03:34:32.435Z,25.49
2022-08-02T03:35:03.878Z,25.49
2022-08-02T03:35:35.314Z,25.49
2022-08-02T03:36:06.741Z,25.49
2022-08-02T03:36:38.168Z,25.49
2022-08-02T03:37:09.592Z,25.48
2022-08-02T03:37:41.125Z,25.48
2022-08-02T03:38:12.584Z,25.47
2022-08-02T03:38:44.008Z,25.48
2022-08-02T03:39:15.444Z,25.48
2022-08-02T03:39:51.842Z,25.49
2022-08-02T03:40:24.643Z,25.47
2022-08-02T03:40:56.075Z,25.47
2022-08-02T03:41:27.504Z,25.46
2022-08-02T03:41:58.927Z,25.47
2022-08-02T03:42:30.367Z,25.47
2022-08-02T03:43:01.819Z,25.47
2022-08-02T03:43:33.239Z,25.46
2022-08-02T03:44:04.671Z,25.45
2022-08-02T03:44:36.109Z,25.45
2022-08-02T03:45:08.913Z,25.45
2022-08-02T03:45:40.565Z,25.44
2022-08-02T03:46:12.539Z,25.45
2022-08-02T03:46:43.970Z,25.45
2022-08-02T03:47:15.395Z,25.45
2022-08-02T03:47:46.919Z,25.44
2022-08-02T03:48:34.028Z,25.44
2022-08-02T03:49:06.534Z,25.44
2022-08-02T03:49:38.057Z,25.44
2022-08-02T03:50:09.534Z,25.43
2022-08-02T03:50:41.053Z,25.45
2022-08-02T03:51:12.483Z,25.44
2022-08-02T03:51:43.919Z,25.44
2022-08-02T03:52:15.348Z,25.43
2022-08-02T03:52:46.839Z,25.44
2022-08-02T03:53:20.144Z,25.41
2022-08-02T03:53:51.781Z,25.42
2022-08-02T03:54:23.205Z,25.43
2022-08-02T03:55:05.930Z,25.43
2022-08-02T03:55:37.369Z,25.42
2022-08-02T03:56:08.818Z,25.43
2022-08-02T03:56:40.250Z,25.42
2022-08-02T03:57:11.689Z,25.43
2022-08-02T03:57:43.187Z,25.43
2022-08-02T03:58:14.620Z,25.41
2022-08-02T03:58:49.293Z,25.41
2022-08-02T03:59:20.903Z,25.42
2022-08-02T03:59:52.334Z,25.40
2022-08-02T04:00:23.786Z,25.40
2022-08-02T04:00:55.298Z,25.41
2022-08-02T04:01:26.865Z,25.39
2022-08-02T04:01:58.327Z,25.39
2022-08-02T04:02:33.858Z,25.38
2022-08-02T04:03:05.340Z,25.40
2022-08-02T04:03:36.763Z,25.38
2022-08-02T04:04:08.201Z,25.38
2022-08-02T04:04:39.633Z,25.39
2022-08-02T04:05:11.073Z,25.39
2022-08-02T04:05:59.368Z,25.39
2022-08-02T04:06:33.914Z,25.38
2022-08-02T04:07:07.281Z,25.38
2022-08-02T04:08:33.555Z,25.38
2022-08-02T04:08:36.705Z,25.37
2022-08-02T04:09:09.331Z,25.37
2022-08-02T04:09:40.776Z,25.37
2022-08-02T04:10:12.230Z,25.38
2022-08-02T04:10:43.651Z,25.37
2022-08-02T04:11:15.141Z,25.37
2022-08-02T04:11:46.576Z,25.37
2022-08-02T04:12:18.001Z,25.37
2022-08-02T04:12:49.424Z,25.37
2022-08-02T04:13:20.852Z,25.36
2022-08-02T04:13:56.777Z,25.37
2022-08-02T04:14:28.508Z,25.35
2022-08-02T04:14:59.937Z,25.36
2022-08-02T04:15:31.369Z,25.36
2022-08-02T04:16:02.804Z,25.36
2022-08-02T04:16:34.233Z,25.35
2022-08-02T04:17:05.659Z,25.35
2022-08-02T04:17:37.219Z,25.35
2022-08-02T04:18:08.675Z,25.36
2022-08-02T04:18:40.101Z,25.35
2022-08-02T04:19:15.266Z,25.35
2022-08-02T04:19:46.845Z,25.35
2022-08-02T04:20:18.276Z,25.35
2022-08-02T04:20:49.704Z,25.35
2022-08-02T04:21:21.129Z,25.35
2022-08-02T04:21:52.745Z,25.36
2022-08-02T04:22:24.206Z,25.35
2022-08-02T04:22:55.652Z,25.36
2022-08-02T04:23:27.099Z,25.35
2022-08-02T04:23:58.536Z,25.35
2022-08-02T04:24:30.968Z,25.35
2022-08-02T04:25:02.404Z,25.35
2022-08-02T04:25:35.591Z,25.35
2022-08-02T04:26:12.100Z,25.34
2022-08-02T04:26:44.287Z,25.34
2022-08-02T04:27:50.293Z,25.34
2022-08-02T04:28:16.580Z,25.34
2022-08-02T04:28:49.720Z,25.34
2022-08-02T04:29:21.149Z,25.33
2022-08-02T04:29:52.595Z,25.32
2022-08-02T04:30:24.025Z,25.33
2022-08-02T04:30:55.452Z,25.32
2022-08-02T04:31:26.882Z,25.34
2022-08-02T04:31:58.311Z,25.33
2022-08-02T04:32:29.746Z,25.33
2022-08-02T04:33:01.183Z,25.32
2022-08-02T04:33:32.613Z,25.31
2022-08-02T04:34:04.048Z,25.32
2022-08-02T04:34:35.480Z,25.32
2022-08-02T04:35:22.204Z,25.33
2022-08-02T04:35:57.814Z,25.33
2022-08-02T04:36:31.978Z,25.32
2022-08-02T04:37:03.572Z,25.32
2022-08-02T04:37:35.015Z,25.32
2022-08-02T04:38:10.118Z,25.32
2022-08-02T04:38:41.908Z,25.32
2022-08-02T04:39:13.335Z,25.32
2022-08-02T04:39:46.568Z,25.32
2022-08-02T04:40:18.087Z,25.31
2022-08-02T04:40:49.518Z,25.31
2022-08-02T04:41:20.950Z,25.31
2022-08-02T04:41:57.138Z,25.31
2022-08-02T04:42:29.106Z,25.32
2022-08-02T04:43:00.533Z,25.31
2022-08-02T04:43:31.955Z,25.31
2022-08-02T04:44:03.377Z,25.31
2022-08-02T04:44:34.813Z,25.31
2022-08-02T04:45:06.255Z,25.31
2022-08-02T04:45:37.753Z,25.31
2022-08-02T04:46:09.181Z,25.32
2022-08-02T04:46:40.605Z,25.31
2022-08-02T04:47:12.034Z,25.31
2022-08-02T04:48:02.357Z,25.31
2022-08-02T04:48:34.879Z,25.31
2022-08-02T04:49:06.389Z,25.31
2022-08-02T04:49:37.939Z,25.30
2022-08-02T04:50:09.408Z,25.31
2022-08-02T04:50:40.867Z,25.31
2022-08-02T04:51:12.321Z,25.30
2022-08-02T04:51:43.755Z,25.31
2022-08-02T04:52:15.361Z,25.30
2022-08-02T04:52:46.880Z,25.30
2022-08-02T04:53:18.303Z,25.31
2022-08-02T04:53:49.728Z,25.30
2022-08-02T04:54:21.156Z,25.30
2022-08-02T04:54:52.659Z,25.30
2022-08-02T04:55:24.083Z,25.30
2022-08-02T04:55:55.640Z,25.32
2022-08-02T04:56:27.236Z,25.31
2022-08-02T04:56:58.669Z,25.30
2022-08-02T04:57:30.097Z,25.31
2022-08-02T04:58:04.097Z,25.31
2022-08-02T04:58:41.234Z,25.30
2022-08-02T04:59:12.697Z,25.30
2022-08-02T04:59:44.124Z,25.31
2022-08-02T05:00:15.673Z,25.31
2022-08-02T05:00:48.580Z,25.32
2022-08-02T05:01:20.177Z,25.32
2022-08-02T05:01:51.789Z,25.31
2022-08-02T05:02:23.215Z,25.31
2022-08-02T05:02:54.648Z,25.32
2022-08-02T05:03:26.071Z,25.30
2022-08-02T05:03:57.496Z,25.31
2022-08-02T05:04:28.924Z,25.30
2022-08-02T05:05:00.358Z,25.33
2022-08-02T05:05:31.792Z,25.30
2022-08-02T05:06:03.227Z,25.31
2022-08-02T05:06:39.107Z,25.31
2022-08-02T05:07:10.532Z,25.31
2022-08-02T05:07:41.968Z,25.32
2022-08-02T05:08:13.396Z,25.31
2022-08-02T05:08:44.820Z,25.30
2022-08-02T05:09:24.453Z,25.31
2022-08-02T05:09:55.880Z,25.32
2022-08-02T05:10:27.311Z,25.32
2022-08-02T05:10:58.740Z,25.30
2022-08-02T05:11:36.161Z,25.31
2022-08-02T05:12:08.490Z,25.31
2022-08-02T05:12:41.216Z,25.30
2022-08-02T05:13:12.659Z,25.30
2022-08-02T05:13:57.906Z,25.30
2022-08-02T05:14:30.797Z,25.29
2022-08-02T05:15:02.225Z,25.29
2022-08-02T05:15:33.661Z,25.30
2022-08-02T05:16:05.097Z,25.29
2022-08-02T05:16:36.537Z,25.27
2022-08-02T05:17:07.959Z,25.28
2022-08-02T05:17:39.484Z,25.27
2022-08-02T05:18:19.125Z,25.27
2022-08-02T05:18:50.561Z,25.26
2022-08-02T05:19:21.996Z,25.27
2022-08-02T05:19:53.436Z,25.27
2022-08-02T05:20:24.936Z,25.26
2022-08-02T05:20:58.241Z,25.26
2022-08-02T05:21:29.887Z,25.26
2022-08-02T05:22:01.340Z,25.26
2022-08-02T05:22:32.770Z,25.26
2022-08-02T05:23:04.198Z,25.26
2022-08-02T05:23:35.633Z,25.26
2022-08-02T05:24:07.056Z,25.25
2022-08-02T05:24:38.556Z,25.26
2022-08-02T05:25:09.984Z,25.24
2022-08-02T05:25:41.417Z,25.25
2022-08-02T05:26:12.840Z,25.25
2022-08-02T05:26:44.263Z,25.25
2022-08-02T05:27:16.505Z,25.24
2022-08-02T05:27:53.091Z,25.26
2022-08-02T05:28:24.608Z,25.25
2022-08-02T05:28:56.033Z,25.25
2022-08-02T05:29:27.456Z,25.24
2022-08-02T05:29:58.887Z,25.25
2022-08-02T05:30:30.348Z,25.25
2022-08-02T05:31:01.776Z,25.23
2022-08-02T05:31:33.198Z,25.25
2022-08-02T05:32:04.635Z,25.26
2022-08-02T05:32:36.056Z,25.24
2022-08-02T05:33:07.538Z,25.25
2022-08-02T05:33:39.077Z,25.25
2022-08-02T05:34:12.147Z,25.25
2022-08-02T05:34:43.752Z,25.25
2022-08-02T05:35:16.490Z,25.24
2022-08-02T05:35:47.924Z,25.25
2022-08-02T05:36:19.353Z,25.24
2022-08-02T05:36:53.149Z,25.23
2022-08-02T05:37:25.032Z,25.25
2022-08-02T05:37:56.468Z,25.24
2022-08-02T05:38:27.887Z,25.24
2022-08-02T05:39:04.955Z,25.24
2022-08-02T05:39:36.794Z,25.23
2022-08-02T05:40:26.640Z,25.24
2022-08-02T05:40:58.072Z,25.24
2022-08-02T05:41:29.496Z,25.23
2022-08-02T05:42:00.928Z,25.23
2022-08-02T05:42:34.474Z,25.24
2022-08-02T05:43:05.896Z,25.23
2022-08-02T05:43:37.328Z,25.23
2022-08-02T05:44:08.842Z,25.19
2022-08-02T05:44:40.268Z,25.19
2022-08-02T05:45:11.722Z,25.16
2022-08-02T05:45:43.155Z,25.19
2022-08-02T05:46:20.093Z,25.20
2022-08-02T05:46:51.892Z,25.21
2022-08-02T05:47:23.446Z,25.21
2022-08-02T05:47:54.876Z,25.21
2022-08-02T05:48:31.111Z,25.22
2022-08-02T05:49:03.639Z,25.21
2022-08-02T05:49:35.334Z,25.21
2022-08-02T05:50:06.816Z,25.21
2022-08-02T05:50:38.252Z,25.22
2022-08-02T05:51:09.749Z,25.22
2022-08-02T05:51:41.193Z,25.21
2022-08-02T05:52:12.915Z,25.21
2022-08-02T05:52:45.090Z,25.20
2022-08-02T05:53:18.137Z,25.22
2022-08-02T05:53:49.569Z,25.21
2022-08-02T05:54:21.015Z,25.22
2022-08-02T05:54:52.472Z,25.20
2022-08-02T05:55:23.904Z,25.21
2022-08-02T05:55:55.376Z,25.21
2022-08-02T05:56:26.807Z,25.21
2022-08-02T05:56:58.234Z,25.22
2022-08-02T05:57:29.664Z,25.22
2022-08-02T05:58:01.155Z,25.22
2022-08-02T05:58:32.582Z,25.22
2022-08-02T05:59:04.078Z,25.23
2022-08-02T05:59:35.527Z,25.24
2022-08-02T06:00:07.009Z,25.24
2022-08-02T06:00:38.445Z,25.25
2022-08-02T06:01:09.948Z,25.25
2022-08-02T06:01:41.718Z,25.25
2022-08-02T06:02:13.696Z,25.25
2022-08-02T06:02:52.247Z,25.25
2022-08-02T06:03:24.622Z,25.27
2022-08-02T06:03:56.298Z,25.27
2022-08-02T06:04:27.758Z,25.27
2022-08-02T06:04:59.333Z,25.27
2022-08-02T06:05:30.764Z,25.27
2022-08-02T06:06:02.215Z,25.27
2022-08-02T06:06:33.640Z,25.29
2022-08-02T06:07:05.096Z,25.28
2022-08-02T06:07:36.524Z,25.29
2022-08-02T06:08:07.948Z,25.29
2022-08-02T06:08:42.524Z,25.30
2022-08-02T06:09:17.216Z,25.31
2022-08-02T06:09:54.783Z,25.30
2022-08-02T06:10:26.296Z,25.31
2022-08-02T06:10:57.736Z,25.32
2022-08-02T06:11:29.165Z,25.32
2022-08-02T06:12:02.353Z,25.32
2022-08-02T06:12:34.368Z,25.33
2022-08-02T06:13:05.791Z,25.32
2022-08-02T06:13:39.293Z,25.33
2022-08-02T06:14:10.721Z,25.33
2022-08-02T06:14:42.171Z,25.33
2022-08-02T06:15:13.640Z,25.34
2022-08-02T06:15:53.191Z,25.33
2022-08-02T06:16:31.753Z,25.33
2022-08-02T06:17:04.109Z,25.32
2022-08-02T06:17:35.541Z,25.33
2022-08-02T06:18:13.373Z,25.34
2022-08-02T06:18:47.293Z,25.34
2022-08-02T06:19:18.722Z,25.35
2022-08-02T06:19:51.428Z,25.35
2022-08-02T06:20:23.599Z,25.35
2022-08-02T06:20:55.057Z,25.35
2022-08-02T06:22:31.298Z,25.36
2022-08-02T06:22:37.546Z,25.36
2022-08-02T06:23:05.841Z,25.36
2022-08-02T06:23:37.339Z,25.36
2022-08-02T06:24:09.409Z,25.36
2022-08-02T06:24:40.889Z,25.37
2022-08-02T06:25:50.615Z,25.37
2022-08-02T06:26:03.947Z,25.37
2022-08-02T06:26:35.368Z,25.37
2022-08-02T06:27:06.796Z,25.39
2022-08-02T06:27:38.272Z,25.38
2022-08-02T06:28:11.478Z,25.39
2022-08-02T06:28:43.152Z,25.40
2022-08-02T06:29:14.581Z,25.40
2022-08-02T06:29:46.343Z,25.41
2022-08-02T06:30:17.773Z,25.41
2022-08-02T06:30:49.249Z,25.40
2022-08-02T06:31:20.711Z,25.43
2022-08-02T06:31:52.157Z,25.43
2022-08-02T06:32:23.586Z,25.43
2022-08-02T06:32:55.019Z,25.44
2022-08-02T06:33:26.456Z,25.45
2022-08-02T06:33:57.888Z,25.45
2022-08-02T06:34:29.330Z,25.46
2022-08-02T06:35:00.816Z,25.46
2022-08-02T06:35:32.244Z,25.47
2022-08-02T06:36:03.673Z,25.47
2022-08-02T06:36:35.128Z,25.48
2022-08-02T06:37:06.557Z,25.48
2022-08-02T06:37:38.022Z,25.48
2022-08-02T06:38:09.460Z,25.48
2022-08-02T06:38:40.881Z,25.49
2022-08-02T06:39:13.837Z,25.50
2022-08-02T06:39:45.544Z,25.51
2022-08-02T06:40:16.968Z,25.51
2022-08-02T06:40:48.441Z,25.53
2022-08-02T06:41:19.886Z,25.53
2022-08-02T06:41:51.405Z,25.53
2022-08-02T06:42:26.866Z,25.54
2022-08-02T06:42:58.813Z,25.54
2022-08-02T06:43:30.257Z,25.55
2022-08-02T06:44:18.604Z,25.57
2022-08-02T06:44:55.647Z,25.57
2022-08-02T06:45:29.300Z,25.59
2022-08-02T06:46:38.076Z,25.59
2022-08-02T06:47:11.794Z,25.59
2022-08-02T06:47:43.644Z,25.61
2022-08-02T06:48:15.081Z,25.62
2022-08-02T06:48:46.535Z,25.62
2022-08-02T06:49:17.994Z,25.63
2022-08-02T06:49:52.766Z,25.64
2022-08-02T06:50:25.981Z,25.64
2022-08-02T06:50:57.414Z,25.64
2022-08-02T06:51:28.845Z,25.66
2022-08-02T06:52:00.349Z,25.66
2022-08-02T06:52:31.778Z,25.66
2022-08-02T06:53:03.231Z,25.67
2022-08-02T06:53:34.673Z,25.67
2022-08-02T06:54:06.109Z,25.67
2022-08-02T06:54:37.539Z,25.68
2022-08-02T06:55:08.979Z,25.69
2022-08-02T06:55:43.332Z,25.70
2022-08-02T06:56:15.625Z,25.69
2022-08-02T06:56:47.059Z,25.70
2022-08-02T06:57:19.515Z,25.71
2022-08-02T06:57:50.946Z,25.72
2022-08-02T06:58:25.323Z,25.72
2022-08-02T06:58:56.762Z,25.72
2022-08-02T06:59:28.187Z,25.72